sensor_id;sensor_type;location;lat;lon;timestamp;P1;durP1;ratioP1;P2;durP2;ratioP2
62633;SDS011;48704;50.534;6.442;2023-02-01T00:01:21;15.38;;;6.78;;
62633;SDS011;48704;50.534;6.442;2023-02-01T00:03:46;9.27;;;4.75;;
62633;SDS011;48704;50.534;6.442;2023-02-01T00:06:12;24.17;;;6.75;;
62633;SDS011;48704;50.534;6.442;2023-02-01T00:08:37;15.23;;;5.75;;
62633;SDS011;48704;50.534;6.442;2023-02-01T00:11:06;23.42;;;8.48;;
62633;SDS011;48704;50.534;6.442;2023-02-01T00:13:33;12.80;;;6.07;;
62633;SDS011;48704;50.534;6.442;2023-02-01T00:16:10;18.45;;;5.93;;
62633;SDS011;48704;50.534;6.442;2023-02-01T00:18:38;18.58;;;6.20;;
62633;SDS011;48704;50.534;6.442;2023-02-01T00:21:03;15.40;;;6.35;;
62633;SDS011;48704;50.534;6.442;2023-02-01T00:23:32;16.05;;;6.93;;
62633;SDS011;48704;50.534;6.442;2023-02-01T00:26:00;14.60;;;5.35;;
62633;SDS011;48704;50.534;6.442;2023-02-01T00:28:26;15.70;;;5.85;;
62633;SDS011;48704;50.534;6.442;2023-02-01T00:31:02;17.38;;;5.65;;
62633;SDS011;48704;50.534;6.442;2023-02-01T00:33:28;15.07;;;5.03;;
62633;SDS011;48704;50.534;6.442;2023-02-01T00:35:58;7.97;;;3.83;;
62633;SDS011;48704;50.534;6.442;2023-02-01T00:38:29;11.27;;;4.78;;
62633;SDS011;48704;50.534;6.442;2023-02-01T00:41:02;14.98;;;7.00;;
62633;SDS011;48704;50.534;6.442;2023-02-01T00:43:30;11.07;;;4.88;;
62633;SDS011;48704;50.534;6.442;2023-02-01T00:45:56;21.50;;;6.22;;
62633;SDS011;48704;50.534;6.442;2023-02-01T00:48:21;15.07;;;5.18;;
62633;SDS011;48704;50.534;6.442;2023-02-01T00:50:46;22.85;;;6.18;;
62633;SDS011;48704;50.534;6.442;2023-02-01T00:53:12;16.08;;;5.43;;
62633;SDS011;48704;50.534;6.442;2023-02-01T00:55:37;12.13;;;5.05;;
62633;SDS011;48704;50.534;6.442;2023-02-01T00:58:03;18.27;;;5.18;;
62633;SDS011;48704;50.534;6.442;2023-02-01T01:00:30;11.95;;;5.85;;
62633;SDS011;48704;50.534;6.442;2023-02-01T01:02:56;13.85;;;6.30;;
62633;SDS011;48704;50.534;6.442;2023-02-01T01:05:21;15.52;;;5.35;;
62633;SDS011;48704;50.534;6.442;2023-02-01T01:07:46;17.58;;;6.88;;
62633;SDS011;48704;50.534;6.442;2023-02-01T01:10:12;16.13;;;6.20;;
62633;SDS011;48704;50.534;6.442;2023-02-01T01:12:37;10.68;;;4.88;;
62633;SDS011;48704;50.534;6.442;2023-02-01T01:15:02;16.85;;;5.75;;
62633;SDS011;48704;50.534;6.442;2023-02-01T01:17:28;16.10;;;6.38;;
62633;SDS011;48704;50.534;6.442;2023-02-01T01:19:55;19.88;;;6.68;;
62633;SDS011;48704;50.534;6.442;2023-02-01T01:22:20;20.63;;;7.13;;
62633;SDS011;48704;50.534;6.442;2023-02-01T01:24:46;18.33;;;6.60;;
62633;SDS011;48704;50.534;6.442;2023-02-01T01:27:11;17.42;;;6.00;;
62633;SDS011;48704;50.534;6.442;2023-02-01T01:29:36;16.25;;;5.60;;
62633;SDS011;48704;50.534;6.442;2023-02-01T01:32:01;12.02;;;4.82;;
62633;SDS011;48704;50.534;6.442;2023-02-01T01:34:27;16.90;;;6.38;;
62633;SDS011;48704;50.534;6.442;2023-02-01T01:36:52;17.13;;;6.28;;
62633;SDS011;48704;50.534;6.442;2023-02-01T01:39:17;15.05;;;5.55;;
62633;SDS011;48704;50.534;6.442;2023-02-01T01:41:43;14.15;;;6.38;;
62633;SDS011;48704;50.534;6.442;2023-02-01T01:47:11;9.40;;;3.83;;
62633;SDS011;48704;50.534;6.442;2023-02-01T01:49:38;22.55;;;5.97;;
62633;SDS011;48704;50.534;6.442;2023-02-01T01:52:04;10.32;;;4.13;;
62633;SDS011;48704;50.534;6.442;2023-02-01T01:54:47;24.73;;;5.40;;
62633;SDS011;48704;50.534;6.442;2023-02-01T01:57:32;9.68;;;4.25;;
62633;SDS011;48704;50.534;6.442;2023-02-01T02:00:04;15.82;;;4.15;;
62633;SDS011;48704;50.534;6.442;2023-02-01T02:02:32;7.45;;;4.13;;
62633;SDS011;48704;50.534;6.442;2023-02-01T02:04:58;13.88;;;4.90;;
62633;SDS011;48704;50.534;6.442;2023-02-01T02:07:28;13.15;;;4.97;;
62633;SDS011;48704;50.534;6.442;2023-02-01T02:09:57;10.68;;;3.55;;
62633;SDS011;48704;50.534;6.442;2023-02-01T02:12:22;17.63;;;5.35;;
62633;SDS011;48704;50.534;6.442;2023-02-01T02:14:47;10.15;;;3.58;;
62633;SDS011;48704;50.534;6.442;2023-02-01T02:17:21;15.10;;;3.95;;
62633;SDS011;48704;50.534;6.442;2023-02-01T02:28:56;14.63;;;4.15;;
62633;SDS011;48704;50.534;6.442;2023-02-01T02:35:01;14.98;;;4.47;;
62633;SDS011;48704;50.534;6.442;2023-02-01T02:43:06;13.18;;;5.53;;
62633;SDS011;48704;50.534;6.442;2023-02-01T02:49:05;17.60;;;4.80;;
62633;SDS011;48704;50.534;6.442;2023-02-01T02:54:26;22.52;;;6.53;;
62633;SDS011;48704;50.534;6.442;2023-02-01T02:57:26;18.77;;;5.13;;
62633;SDS011;48704;50.534;6.442;2023-02-01T03:00:17;17.25;;;5.03;;
62633;SDS011;48704;50.534;6.442;2023-02-01T03:03:03;13.88;;;4.82;;
62633;SDS011;48704;50.534;6.442;2023-02-01T03:08:28;17.02;;;4.95;;
62633;SDS011;48704;50.534;6.442;2023-02-01T03:19:18;16.85;;;6.22;;
62633;SDS011;48704;50.534;6.442;2023-02-01T03:21:50;29.05;;;7.25;;
62633;SDS011;48704;50.534;6.442;2023-02-01T03:26:57;13.82;;;5.85;;
62633;SDS011;48704;50.534;6.442;2023-02-01T03:29:32;16.25;;;6.05;;
62633;SDS011;48704;50.534;6.442;2023-02-01T03:32:03;15.23;;;5.35;;
62633;SDS011;48704;50.534;6.442;2023-02-01T03:34:28;17.52;;;7.10;;
62633;SDS011;48704;50.534;6.442;2023-02-01T03:36:57;17.13;;;5.72;;
62633;SDS011;48704;50.534;6.442;2023-02-01T03:39:28;20.15;;;6.18;;
62633;SDS011;48704;50.534;6.442;2023-02-01T03:42:05;24.50;;;7.77;;
62633;SDS011;48704;50.534;6.442;2023-02-01T03:47:24;18.75;;;6.60;;
62633;SDS011;48704;50.534;6.442;2023-02-01T03:49:54;18.38;;;5.53;;
62633;SDS011;48704;50.534;6.442;2023-02-01T03:52:24;16.27;;;6.25;;
62633;SDS011;48704;50.534;6.442;2023-02-01T03:54:54;18.98;;;6.78;;
62633;SDS011;48704;50.534;6.442;2023-02-01T03:57:26;15.27;;;4.60;;
62633;SDS011;48704;50.534;6.442;2023-02-01T03:59:59;16.65;;;5.60;;
62633;SDS011;48704;50.534;6.442;2023-02-01T04:02:32;14.63;;;5.25;;
62633;SDS011;48704;50.534;6.442;2023-02-01T04:04:58;13.10;;;5.05;;
62633;SDS011;48704;50.534;6.442;2023-02-01T04:07:23;16.75;;;5.43;;
62633;SDS011;48704;50.534;6.442;2023-02-01T04:09:48;7.20;;;4.30;;
62633;SDS011;48704;50.534;6.442;2023-02-01T04:12:14;11.85;;;4.00;;
62633;SDS011;48704;50.534;6.442;2023-02-01T04:14:39;12.00;;;3.75;;
62633;SDS011;48704;50.534;6.442;2023-02-01T04:17:04;13.25;;;4.00;;
62633;SDS011;48704;50.534;6.442;2023-02-01T04:19:29;8.20;;;3.28;;
62633;SDS011;48704;50.534;6.442;2023-02-01T04:21:55;15.98;;;4.57;;
62633;SDS011;48704;50.534;6.442;2023-02-01T04:24:20;10.07;;;4.72;;
62633;SDS011;48704;50.534;6.442;2023-02-01T04:26:45;15.02;;;4.88;;
62633;SDS011;48704;50.534;6.442;2023-02-01T04:29:10;9.52;;;2.67;;
62633;SDS011;48704;50.534;6.442;2023-02-01T04:31:36;9.57;;;3.80;;
62633;SDS011;48704;50.534;6.442;2023-02-01T04:34:02;12.52;;;4.28;;
62633;SDS011;48704;50.534;6.442;2023-02-01T04:36:27;13.65;;;4.18;;
62633;SDS011;48704;50.534;6.442;2023-02-01T04:38:52;22.90;;;3.63;;
62633;SDS011;48704;50.534;6.442;2023-02-01T04:41:18;15.15;;;4.78;;
62633;SDS011;48704;50.534;6.442;2023-02-01T04:43:47;18.48;;;3.63;;
62633;SDS011;48704;50.534;6.442;2023-02-01T04:46:13;15.93;;;4.45;;
62633;SDS011;48704;50.534;6.442;2023-02-01T04:48:39;9.00;;;2.67;;
62633;SDS011;48704;50.534;6.442;2023-02-01T04:51:05;13.55;;;4.03;;
62633;SDS011;48704;50.534;6.442;2023-02-01T04:53:30;11.13;;;3.05;;
62633;SDS011;48704;50.534;6.442;2023-02-01T04:55:55;11.68;;;4.90;;
62633;SDS011;48704;50.534;6.442;2023-02-01T04:58:21;23.65;;;3.75;;
62633;SDS011;48704;50.534;6.442;2023-02-01T05:00:46;5.07;;;2.17;;
62633;SDS011;48704;50.534;6.442;2023-02-01T05:03:12;8.88;;;3.33;;
62633;SDS011;48704;50.534;6.442;2023-02-01T05:05:37;12.02;;;4.15;;
62633;SDS011;48704;50.534;6.442;2023-02-01T05:08:02;13.65;;;3.75;;
62633;SDS011;48704;50.534;6.442;2023-02-01T05:10:28;9.20;;;3.85;;
62633;SDS011;48704;50.534;6.442;2023-02-01T05:12:53;11.55;;;3.03;;
62633;SDS011;48704;50.534;6.442;2023-02-01T05:18:02;15.10;;;4.10;;
62633;SDS011;48704;50.534;6.442;2023-02-01T05:20:28;11.25;;;3.92;;
62633;SDS011;48704;50.534;6.442;2023-02-01T05:22:53;10.85;;;3.75;;
62633;SDS011;48704;50.534;6.442;2023-02-01T05:25:19;13.60;;;3.67;;
62633;SDS011;48704;50.534;6.442;2023-02-01T05:27:44;11.18;;;3.83;;
62633;SDS011;48704;50.534;6.442;2023-02-01T05:30:09;12.70;;;4.25;;
62633;SDS011;48704;50.534;6.442;2023-02-01T05:32:35;12.18;;;3.97;;
62633;SDS011;48704;50.534;6.442;2023-02-01T05:35:00;16.17;;;4.70;;
62633;SDS011;48704;50.534;6.442;2023-02-01T05:37:26;8.70;;;3.55;;
62633;SDS011;48704;50.534;6.442;2023-02-01T05:39:51;11.27;;;4.35;;
62633;SDS011;48704;50.534;6.442;2023-02-01T05:42:17;16.98;;;5.60;;
62633;SDS011;48704;50.534;6.442;2023-02-01T05:44:42;8.63;;;3.50;;
62633;SDS011;48704;50.534;6.442;2023-02-01T05:47:07;23.13;;;4.20;;
62633;SDS011;48704;50.534;6.442;2023-02-01T05:49:33;15.98;;;4.82;;
62633;SDS011;48704;50.534;6.442;2023-02-01T05:51:58;8.35;;;3.42;;
62633;SDS011;48704;50.534;6.442;2023-02-01T05:54:23;11.00;;;4.28;;
62633;SDS011;48704;50.534;6.442;2023-02-01T05:56:48;13.60;;;3.65;;
62633;SDS011;48704;50.534;6.442;2023-02-01T05:59:14;12.00;;;2.78;;
62633;SDS011;48704;50.534;6.442;2023-02-01T06:01:39;9.65;;;3.30;;
62633;SDS011;48704;50.534;6.442;2023-02-01T06:04:04;19.00;;;5.78;;
62633;SDS011;48704;50.534;6.442;2023-02-01T06:06:29;14.00;;;3.28;;
62633;SDS011;48704;50.534;6.442;2023-02-01T06:08:55;10.40;;;3.95;;
62633;SDS011;48704;50.534;6.442;2023-02-01T06:11:20;11.52;;;3.40;;
62633;SDS011;48704;50.534;6.442;2023-02-01T06:13:45;8.38;;;3.10;;
62633;SDS011;48704;50.534;6.442;2023-02-01T06:16:10;9.20;;;3.40;;
62633;SDS011;48704;50.534;6.442;2023-02-01T06:18:35;13.43;;;4.50;;
62633;SDS011;48704;50.534;6.442;2023-02-01T06:21:01;10.35;;;4.30;;
62633;SDS011;48704;50.534;6.442;2023-02-01T06:23:27;14.70;;;4.40;;
62633;SDS011;48704;50.534;6.442;2023-02-01T06:26:03;15.25;;;3.58;;
62633;SDS011;48704;50.534;6.442;2023-02-01T06:28:30;13.18;;;2.83;;
62633;SDS011;48704;50.534;6.442;2023-02-01T06:30:57;12.77;;;3.80;;
62633;SDS011;48704;50.534;6.442;2023-02-01T06:33:23;10.80;;;2.97;;
62633;SDS011;48704;50.534;6.442;2023-02-01T06:35:49;43.17;;;4.75;;
62633;SDS011;48704;50.534;6.442;2023-02-01T06:38:21;15.52;;;5.00;;
62633;SDS011;48704;50.534;6.442;2023-02-01T06:40:51;10.02;;;4.50;;
62633;SDS011;48704;50.534;6.442;2023-02-01T06:43:17;9.65;;;3.47;;
62633;SDS011;48704;50.534;6.442;2023-02-01T06:45:43;10.98;;;3.42;;
62633;SDS011;48704;50.534;6.442;2023-02-01T06:48:08;13.50;;;4.28;;
62633;SDS011;48704;50.534;6.442;2023-02-01T06:50:33;15.30;;;5.72;;
62633;SDS011;48704;50.534;6.442;2023-02-01T06:53:00;9.27;;;4.30;;
62633;SDS011;48704;50.534;6.442;2023-02-01T06:55:25;10.35;;;3.80;;
62633;SDS011;48704;50.534;6.442;2023-02-01T06:57:52;11.80;;;3.67;;
62633;SDS011;48704;50.534;6.442;2023-02-01T07:00:19;10.93;;;4.32;;
62633;SDS011;48704;50.534;6.442;2023-02-01T07:02:44;9.68;;;3.25;;
62633;SDS011;48704;50.534;6.442;2023-02-01T07:05:10;12.18;;;5.28;;
62633;SDS011;48704;50.534;6.442;2023-02-01T07:07:35;12.48;;;5.43;;
62633;SDS011;48704;50.534;6.442;2023-02-01T07:10:00;11.93;;;4.45;;
62633;SDS011;48704;50.534;6.442;2023-02-01T07:12:25;13.77;;;3.72;;
62633;SDS011;48704;50.534;6.442;2023-02-01T07:14:51;22.25;;;6.15;;
62633;SDS011;48704;50.534;6.442;2023-02-01T07:17:16;9.98;;;4.32;;
62633;SDS011;48704;50.534;6.442;2023-02-01T07:19:41;16.88;;;5.75;;
62633;SDS011;48704;50.534;6.442;2023-02-01T07:22:06;17.10;;;5.22;;
62633;SDS011;48704;50.534;6.442;2023-02-01T07:24:33;9.13;;;4.22;;
62633;SDS011;48704;50.534;6.442;2023-02-01T07:26:59;11.23;;;5.88;;
62633;SDS011;48704;50.534;6.442;2023-02-01T07:29:24;16.67;;;4.85;;
62633;SDS011;48704;50.534;6.442;2023-02-01T07:31:49;16.98;;;5.32;;
62633;SDS011;48704;50.534;6.442;2023-02-01T07:34:15;12.93;;;4.75;;
62633;SDS011;48704;50.534;6.442;2023-02-01T07:36:40;14.63;;;5.70;;
62633;SDS011;48704;50.534;6.442;2023-02-01T07:39:06;9.98;;;4.10;;
62633;SDS011;48704;50.534;6.442;2023-02-01T07:41:32;14.77;;;4.93;;
62633;SDS011;48704;50.534;6.442;2023-02-01T07:43:57;14.70;;;5.22;;
62633;SDS011;48704;50.534;6.442;2023-02-01T07:46:23;11.10;;;5.22;;
62633;SDS011;48704;50.534;6.442;2023-02-01T07:48:48;11.55;;;3.47;;
62633;SDS011;48704;50.534;6.442;2023-02-01T07:51:14;13.13;;;4.22;;
62633;SDS011;48704;50.534;6.442;2023-02-01T07:53:42;14.38;;;4.50;;
62633;SDS011;48704;50.534;6.442;2023-02-01T07:56:12;12.48;;;5.15;;
62633;SDS011;48704;50.534;6.442;2023-02-01T07:58:38;8.80;;;3.53;;
62633;SDS011;48704;50.534;6.442;2023-02-01T08:01:04;14.10;;;5.03;;
62633;SDS011;48704;50.534;6.442;2023-02-01T08:03:45;23.42;;;7.07;;
62633;SDS011;48704;50.534;6.442;2023-02-01T08:06:11;10.90;;;4.45;;
62633;SDS011;48704;50.534;6.442;2023-02-01T08:08:37;14.77;;;4.95;;
62633;SDS011;48704;50.534;6.442;2023-02-01T08:11:04;18.20;;;4.93;;
62633;SDS011;48704;50.534;6.442;2023-02-01T08:13:31;12.45;;;4.85;;
62633;SDS011;48704;50.534;6.442;2023-02-01T08:15:58;13.75;;;5.15;;
62633;SDS011;48704;50.534;6.442;2023-02-01T08:18:24;14.48;;;3.80;;
62633;SDS011;48704;50.534;6.442;2023-02-01T08:20:49;10.20;;;4.15;;
62633;SDS011;48704;50.534;6.442;2023-02-01T08:23:15;8.68;;;2.97;;
62633;SDS011;48704;50.534;6.442;2023-02-01T08:25:40;7.65;;;3.05;;
62633;SDS011;48704;50.534;6.442;2023-02-01T08:28:06;12.63;;;4.10;;
62633;SDS011;48704;50.534;6.442;2023-02-01T08:30:32;14.77;;;4.50;;
62633;SDS011;48704;50.534;6.442;2023-02-01T08:32:57;13.00;;;3.13;;
62633;SDS011;48704;50.534;6.442;2023-02-01T08:35:23;8.82;;;3.53;;
62633;SDS011;48704;50.534;6.442;2023-02-01T08:37:49;18.92;;;4.22;;
62633;SDS011;48704;50.534;6.442;2023-02-01T08:40:15;9.23;;;3.95;;
62633;SDS011;48704;50.534;6.442;2023-02-01T08:42:40;8.02;;;3.40;;
62633;SDS011;48704;50.534;6.442;2023-02-01T08:45:19;10.27;;;3.17;;
62633;SDS011;48704;50.534;6.442;2023-02-01T08:47:46;8.35;;;3.55;;
62633;SDS011;48704;50.534;6.442;2023-02-01T08:50:12;16.08;;;4.65;;
62633;SDS011;48704;50.534;6.442;2023-02-01T08:52:38;14.48;;;4.05;;
62633;SDS011;48704;50.534;6.442;2023-02-01T08:55:04;9.57;;;4.57;;
62633;SDS011;48704;50.534;6.442;2023-02-01T08:57:30;7.88;;;3.30;;
62633;SDS011;48704;50.534;6.442;2023-02-01T08:59:55;9.40;;;3.15;;
62633;SDS011;48704;50.534;6.442;2023-02-01T09:02:21;14.82;;;3.67;;
62633;SDS011;48704;50.534;6.442;2023-02-01T09:04:46;14.05;;;3.83;;
62633;SDS011;48704;50.534;6.442;2023-02-01T09:07:11;8.93;;;3.72;;
62633;SDS011;48704;50.534;6.442;2023-02-01T09:09:38;19.08;;;4.47;;
62633;SDS011;48704;50.534;6.442;2023-02-01T09:12:03;11.57;;;4.03;;
62633;SDS011;48704;50.534;6.442;2023-02-01T09:14:29;21.02;;;5.05;;
62633;SDS011;48704;50.534;6.442;2023-02-01T09:16:55;14.98;;;3.88;;
62633;SDS011;48704;50.534;6.442;2023-02-01T09:19:20;17.42;;;3.95;;
62633;SDS011;48704;50.534;6.442;2023-02-01T09:21:45;11.10;;;3.92;;
62633;SDS011;48704;50.534;6.442;2023-02-01T09:24:11;14.73;;;3.40;;
62633;SDS011;48704;50.534;6.442;2023-02-01T09:26:36;12.43;;;3.53;;
62633;SDS011;48704;50.534;6.442;2023-02-01T09:29:02;17.58;;;4.82;;
62633;SDS011;48704;50.534;6.442;2023-02-01T09:31:29;12.77;;;3.70;;
62633;SDS011;48704;50.534;6.442;2023-02-01T09:33:55;12.65;;;4.07;;
62633;SDS011;48704;50.534;6.442;2023-02-01T09:36:20;19.80;;;5.45;;
62633;SDS011;48704;50.534;6.442;2023-02-01T09:38:46;6.53;;;3.25;;
62633;SDS011;48704;50.534;6.442;2023-02-01T09:43:50;20.50;;;5.50;;
62633;SDS011;48704;50.534;6.442;2023-02-01T09:46:32;4.80;;;3.08;;
62633;SDS011;48704;50.534;6.442;2023-02-01T09:49:00;15.57;;;3.80;;
62633;SDS011;48704;50.534;6.442;2023-02-01T09:51:31;12.32;;;3.38;;
62633;SDS011;48704;50.534;6.442;2023-02-01T09:54:00;12.15;;;3.40;;
62633;SDS011;48704;50.534;6.442;2023-02-01T09:56:33;14.05;;;3.88;;
62633;SDS011;48704;50.534;6.442;2023-02-01T10:02:00;10.48;;;4.28;;
62633;SDS011;48704;50.534;6.442;2023-02-01T10:04:28;10.95;;;4.25;;
62633;SDS011;48704;50.534;6.442;2023-02-01T10:20:43;11.80;;;3.95;;
62633;SDS011;48704;50.534;6.442;2023-02-01T10:26:05;15.15;;;4.68;;
62633;SDS011;48704;50.534;6.442;2023-02-01T10:28:41;13.48;;;4.00;;
62633;SDS011;48704;50.534;6.442;2023-02-01T10:31:10;15.63;;;5.45;;
62633;SDS011;48704;50.534;6.442;2023-02-01T10:33:39;9.52;;;4.03;;
62633;SDS011;48704;50.534;6.442;2023-02-01T10:36:11;17.95;;;4.60;;
62633;SDS011;48704;50.534;6.442;2023-02-01T10:38:42;14.88;;;4.82;;
62633;SDS011;48704;50.534;6.442;2023-02-01T10:41:18;21.80;;;4.68;;
62633;SDS011;48704;50.534;6.442;2023-02-01T10:43:48;8.23;;;3.00;;
62633;SDS011;48704;50.534;6.442;2023-02-01T10:46:18;7.82;;;3.75;;
62633;SDS011;48704;50.534;6.442;2023-02-01T10:48:43;15.20;;;4.53;;
62633;SDS011;48704;50.534;6.442;2023-02-01T10:51:12;14.73;;;3.00;;
62633;SDS011;48704;50.534;6.442;2023-02-01T10:53:53;6.35;;;3.10;;
62633;SDS011;48704;50.534;6.442;2023-02-01T10:56:26;16.35;;;5.10;;
62633;SDS011;48704;50.534;6.442;2023-02-01T10:58:59;19.13;;;3.55;;
62633;SDS011;48704;50.534;6.442;2023-02-01T11:01:40;10.70;;;3.97;;
62633;SDS011;48704;50.534;6.442;2023-02-01T11:04:09;7.22;;;3.20;;
62633;SDS011;48704;50.534;6.442;2023-02-01T11:06:37;8.05;;;3.03;;
62633;SDS011;48704;50.534;6.442;2023-02-01T11:11:32;9.10;;;3.13;;
62633;SDS011;48704;50.534;6.442;2023-02-01T11:14:18;25.58;;;4.90;;
62633;SDS011;48704;50.534;6.442;2023-02-01T11:16:49;8.60;;;2.17;;
62633;SDS011;48704;50.534;6.442;2023-02-01T11:19:17;11.30;;;3.20;;
62633;SDS011;48704;50.534;6.442;2023-02-01T11:21:43;9.90;;;4.63;;
62633;SDS011;48704;50.534;6.442;2023-02-01T11:24:21;13.52;;;3.50;;
62633;SDS011;48704;50.534;6.442;2023-02-01T11:26:48;8.77;;;2.63;;
62633;SDS011;48704;50.534;6.442;2023-02-01T11:29:16;14.20;;;3.50;;
62633;SDS011;48704;50.534;6.442;2023-02-01T11:31:45;11.68;;;2.63;;
62633;SDS011;48704;50.534;6.442;2023-02-01T11:34:20;10.77;;;2.22;;
62633;SDS011;48704;50.534;6.442;2023-02-01T11:36:49;8.23;;;2.05;;
62633;SDS011;48704;50.534;6.442;2023-02-01T11:39:25;18.75;;;3.17;;
62633;SDS011;48704;50.534;6.442;2023-02-01T11:42:14;6.18;;;2.45;;
62633;SDS011;48704;50.534;6.442;2023-02-01T11:44:42;12.43;;;2.30;;
62633;SDS011;48704;50.534;6.442;2023-02-01T11:49:47;7.78;;;2.58;;
62633;SDS011;48704;50.534;6.442;2023-02-01T11:55:17;11.70;;;2.55;;
62633;SDS011;48704;50.534;6.442;2023-02-01T12:00:55;4.90;;;2.40;;
62633;SDS011;48704;50.534;6.442;2023-02-01T12:06:31;15.68;;;2.58;;
62633;SDS011;48704;50.534;6.442;2023-02-01T12:09:11;17.90;;;2.72;;
62633;SDS011;48704;50.534;6.442;2023-02-01T12:21:17;7.80;;;2.83;;
62633;SDS011;48704;50.534;6.442;2023-02-01T12:29:47;10.50;;;2.08;;
62633;SDS011;48704;50.534;6.442;2023-02-01T12:32:25;8.68;;;1.75;;
62633;SDS011;48704;50.534;6.442;2023-02-01T12:46:15;6.35;;;1.95;;
62633;SDS011;48704;50.534;6.442;2023-02-01T12:51:51;4.20;;;1.67;;
62633;SDS011;48704;50.534;6.442;2023-02-01T12:54:34;7.93;;;1.88;;
62633;SDS011;48704;50.534;6.442;2023-02-01T12:57:01;8.65;;;2.40;;
62633;SDS011;48704;50.534;6.442;2023-02-01T12:59:34;10.13;;;1.33;;
62633;SDS011;48704;50.534;6.442;2023-02-01T13:05:24;9.27;;;1.92;;
62633;SDS011;48704;50.534;6.442;2023-02-01T13:08:03;8.70;;;2.38;;
62633;SDS011;48704;50.534;6.442;2023-02-01T13:10:34;11.40;;;2.03;;
62633;SDS011;48704;50.534;6.442;2023-02-01T13:13:19;14.80;;;1.97;;
62633;SDS011;48704;50.534;6.442;2023-02-01T13:18:37;7.38;;;2.13;;
62633;SDS011;48704;50.534;6.442;2023-02-01T13:21:08;5.80;;;1.95;;
62633;SDS011;48704;50.534;6.442;2023-02-01T13:23:40;10.98;;;2.33;;
62633;SDS011;48704;50.534;6.442;2023-02-01T13:26:06;8.60;;;1.35;;
62633;SDS011;48704;50.534;6.442;2023-02-01T13:28:49;6.60;;;1.73;;
62633;SDS011;48704;50.534;6.442;2023-02-01T13:44:42;7.45;;;1.45;;
62633;SDS011;48704;50.534;6.442;2023-02-01T13:47:25;13.45;;;1.80;;
62633;SDS011;48704;50.534;6.442;2023-02-01T13:49:54;9.43;;;1.73;;
62633;SDS011;48704;50.534;6.442;2023-02-01T13:55:00;5.03;;;1.52;;
62633;SDS011;48704;50.534;6.442;2023-02-01T13:57:38;10.40;;;2.15;;
62633;SDS011;48704;50.534;6.442;2023-02-01T14:00:07;5.05;;;1.60;;
62633;SDS011;48704;50.534;6.442;2023-02-01T14:02:49;5.65;;;1.40;;
62633;SDS011;48704;50.534;6.442;2023-02-01T14:23:47;7.97;;;1.65;;
62633;SDS011;48704;50.534;6.442;2023-02-01T14:28:59;4.97;;;1.83;;
62633;SDS011;48704;50.534;6.442;2023-02-01T14:34:04;4.32;;;1.45;;
62633;SDS011;48704;50.534;6.442;2023-02-01T14:36:42;5.40;;;1.13;;
62633;SDS011;48704;50.534;6.442;2023-02-01T14:44:47;14.73;;;3.10;;
62633;SDS011;48704;50.534;6.442;2023-02-01T14:49:49;8.20;;;1.42;;
62633;SDS011;48704;50.534;6.442;2023-02-01T14:52:23;4.50;;;1.50;;
62633;SDS011;48704;50.534;6.442;2023-02-01T14:54:56;12.73;;;2.75;;
62633;SDS011;48704;50.534;6.442;2023-02-01T14:57:26;10.20;;;2.60;;
62633;SDS011;48704;50.534;6.442;2023-02-01T15:00:07;5.97;;;2.10;;
62633;SDS011;48704;50.534;6.442;2023-02-01T15:02:43;10.25;;;2.20;;
62633;SDS011;48704;50.534;6.442;2023-02-01T15:05:24;4.57;;;2.05;;
62633;SDS011;48704;50.534;6.442;2023-02-01T15:07:54;8.38;;;2.30;;
62633;SDS011;48704;50.534;6.442;2023-02-01T15:10:20;5.85;;;2.28;;
62633;SDS011;48704;50.534;6.442;2023-02-01T15:12:46;10.20;;;2.20;;
62633;SDS011;48704;50.534;6.442;2023-02-01T15:15:16;14.82;;;2.95;;
62633;SDS011;48704;50.534;6.442;2023-02-01T15:17:56;7.93;;;2.38;;
62633;SDS011;48704;50.534;6.442;2023-02-01T15:20:26;9.65;;;3.05;;
62633;SDS011;48704;50.534;6.442;2023-02-01T15:22:59;7.80;;;2.28;;
62633;SDS011;48704;50.534;6.442;2023-02-01T15:25:29;7.22;;;2.13;;
62633;SDS011;48704;50.534;6.442;2023-02-01T15:27:56;8.93;;;2.63;;
62633;SDS011;48704;50.534;6.442;2023-02-01T15:30:26;6.45;;;2.03;;
62633;SDS011;48704;50.534;6.442;2023-02-01T15:35:54;12.38;;;2.65;;
62633;SDS011;48704;50.534;6.442;2023-02-01T15:38:37;7.35;;;2.38;;
62633;SDS011;48704;50.534;6.442;2023-02-01T15:41:10;9.27;;;1.90;;
62633;SDS011;48704;50.534;6.442;2023-02-01T15:44:26;12.93;;;2.40;;
62633;SDS011;48704;50.534;6.442;2023-02-01T15:46:30;15.23;;;2.83;;
62633;SDS011;48704;50.534;6.442;2023-02-01T15:49:00;5.97;;;2.08;;
62633;SDS011;48704;50.534;6.442;2023-02-01T15:51:27;17.52;;;3.45;;
62633;SDS011;48704;50.534;6.442;2023-02-01T15:56:32;11.25;;;2.25;;
62633;SDS011;48704;50.534;6.442;2023-02-01T15:59:01;9.95;;;2.28;;
62633;SDS011;48704;50.534;6.442;2023-02-01T16:01:29;11.32;;;3.08;;
62633;SDS011;48704;50.534;6.442;2023-02-01T16:07:00;8.73;;;2.15;;
62633;SDS011;48704;50.534;6.442;2023-02-01T16:09:39;9.55;;;2.42;;
62633;SDS011;48704;50.534;6.442;2023-02-01T16:15:10;15.27;;;3.08;;
62633;SDS011;48704;50.534;6.442;2023-02-01T16:17:36;10.25;;;3.17;;
62633;SDS011;48704;50.534;6.442;2023-02-01T16:20:01;6.90;;;2.15;;
62633;SDS011;48704;50.534;6.442;2023-02-01T16:22:26;7.60;;;2.20;;
62633;SDS011;48704;50.534;6.442;2023-02-01T16:24:52;9.18;;;2.85;;
62633;SDS011;48704;50.534;6.442;2023-02-01T16:27:17;13.05;;;3.08;;
62633;SDS011;48704;50.534;6.442;2023-02-01T16:29:42;10.82;;;2.70;;
62633;SDS011;48704;50.534;6.442;2023-02-01T16:32:13;5.47;;;2.30;;
62633;SDS011;48704;50.534;6.442;2023-02-01T16:34:43;8.00;;;3.38;;
62633;SDS011;48704;50.534;6.442;2023-02-01T16:37:11;7.03;;;3.22;;
62633;SDS011;48704;50.534;6.442;2023-02-01T16:39:38;7.18;;;2.28;;
62633;SDS011;48704;50.534;6.442;2023-02-01T16:42:10;13.38;;;3.15;;
62633;SDS011;48704;50.534;6.442;2023-02-01T16:44:38;9.00;;;3.00;;
62633;SDS011;48704;50.534;6.442;2023-02-01T16:47:05;14.45;;;3.47;;
62633;SDS011;48704;50.534;6.442;2023-02-01T16:49:37;14.98;;;2.55;;
62633;SDS011;48704;50.534;6.442;2023-02-01T16:52:05;11.82;;;3.45;;
62633;SDS011;48704;50.534;6.442;2023-02-01T16:54:36;13.48;;;5.28;;
62633;SDS011;48704;50.534;6.442;2023-02-01T16:57:01;13.50;;;4.05;;
62633;SDS011;48704;50.534;6.442;2023-02-01T16:59:27;12.75;;;3.70;;
62633;SDS011;48704;50.534;6.442;2023-02-01T17:01:52;7.63;;;3.03;;
62633;SDS011;48704;50.534;6.442;2023-02-01T17:04:17;10.85;;;3.50;;
62633;SDS011;48704;50.534;6.442;2023-02-01T17:06:45;14.38;;;3.88;;
62633;SDS011;48704;50.534;6.442;2023-02-01T17:09:13;16.95;;;4.00;;
62633;SDS011;48704;50.534;6.442;2023-02-01T17:11:39;7.88;;;3.05;;
62633;SDS011;48704;50.534;6.442;2023-02-01T17:14:14;14.38;;;4.85;;
62633;SDS011;48704;50.534;6.442;2023-02-01T17:16:45;9.23;;;3.17;;
62633;SDS011;48704;50.534;6.442;2023-02-01T17:19:13;14.13;;;5.18;;
62633;SDS011;48704;50.534;6.442;2023-02-01T17:21:49;4.47;;;1.95;;
62633;SDS011;48704;50.534;6.442;2023-02-01T17:24:18;8.25;;;3.17;;
62633;SDS011;48704;50.534;6.442;2023-02-01T17:26:45;7.78;;;3.38;;
62633;SDS011;48704;50.534;6.442;2023-02-01T17:29:10;8.20;;;2.88;;
62633;SDS011;48704;50.534;6.442;2023-02-01T17:31:37;5.65;;;2.63;;
62633;SDS011;48704;50.534;6.442;2023-02-01T17:34:05;6.20;;;2.90;;
62633;SDS011;48704;50.534;6.442;2023-02-01T17:36:30;5.75;;;3.05;;
62633;SDS011;48704;50.534;6.442;2023-02-01T17:38:55;9.40;;;2.97;;
62633;SDS011;48704;50.534;6.442;2023-02-01T17:41:21;5.03;;;2.25;;
62633;SDS011;48704;50.534;6.442;2023-02-01T17:43:46;9.45;;;3.28;;
62633;SDS011;48704;50.534;6.442;2023-02-01T17:46:14;5.43;;;2.28;;